sensor_id;sensor_type;location;lat;lon;timestamp;pressure;altitude;pressure_sealevel;temperature;humidity
14242;BME280;7205;50.864;12.766;2023-02-22T00:01:51;97696.06;;;10.69;78.60
14242;BME280;7205;50.864;12.766;2023-02-22T00:04:35;97702.97;;;10.70;78.68
14242;BME280;7205;50.864;12.766;2023-02-22T00:07:05;97699.53;;;10.70;78.22
14242;BME280;7205;50.864;12.766;2023-02-22T00:09:32;97696.06;;;10.69;78.14
14242;BME280;7205;50.864;12.766;2023-02-22T00:12:00;97694.09;;;10.71;78.88
14242;BME280;7205;50.864;12.766;2023-02-22T00:14:26;97691.44;;;10.71;78.40
14242;BME280;7205;50.864;12.766;2023-02-22T00:16:54;97684.84;;;10.67;78.76
14242;BME280;7205;50.864;12.766;2023-02-22T00:19:24;97686.00;;;10.73;78.56
14242;BME280;7205;50.864;12.766;2023-02-22T00:21:52;97672.78;;;10.73;78.55
14242;BME280;7205;50.864;12.766;2023-02-22T00:24:21;97686.16;;;10.71;78.44
14242;BME280;7205;50.864;12.766;2023-02-22T00:26:52;97683.53;;;10.71;78.06
14242;BME280;7205;50.864;12.766;2023-02-22T00:29:20;97675.97;;;10.68;77.67
14242;BME280;7205;50.864;12.766;2023-02-22T00:31:51;97684.19;;;10.73;78.37
14242;BME280;7205;50.864;12.766;2023-02-22T00:34:18;97683.00;;;10.76;77.88
14242;BME280;7205;50.864;12.766;2023-02-22T00:36:45;97688.28;;;10.76;77.88
14242;BME280;7205;50.864;12.766;2023-02-22T00:39:12;97688.09;;;10.77;77.90
14242;BME280;7205;50.864;12.766;2023-02-22T00:41:41;97675.25;;;10.74;77.79
14242;BME280;7205;50.864;12.766;2023-02-22T00:44:07;97687.63;;;10.74;77.79
14242;BME280;7205;50.864;12.766;2023-02-22T00:46:34;97684.97;;;10.74;77.92
14242;BME280;7205;50.864;12.766;2023-02-22T00:49:04;97687.25;;;10.77;78.23
14242;BME280;7205;50.864;12.766;2023-02-22T00:51:33;97692.41;;;10.78;77.83
14242;BME280;7205;50.864;12.766;2023-02-22T00:54:01;97682.63;;;10.79;78.20
14242;BME280;7205;50.864;12.766;2023-02-22T00:56:28;97678.00;;;10.81;77.82
14242;BME280;7205;50.864;12.766;2023-02-22T00:58:56;97682.94;;;10.84;77.91
14242;BME280;7205;50.864;12.766;2023-02-22T01:01:23;97681.66;;;10.80;77.54
14242;BME280;7205;50.864;12.766;2023-02-22T01:03:50;97678.47;;;10.84;77.63
14242;BME280;7205;50.864;12.766;2023-02-22T01:06:17;97671.56;;;10.83;77.75
14242;BME280;7205;50.864;12.766;2023-02-22T01:08:44;97674.19;;;10.83;77.63
14242;BME280;7205;50.864;12.766;2023-02-22T01:11:12;97669.91;;;10.82;77.57
14242;BME280;7205;50.864;12.766;2023-02-22T01:13:41;97663.16;;;10.80;77.06
14242;BME280;7205;50.864;12.766;2023-02-22T01:16:11;97673.00;;;10.86;77.71
14242;BME280;7205;50.864;12.766;2023-02-22T01:18:38;97669.91;;;10.82;77.40
14242;BME280;7205;50.864;12.766;2023-02-22T01:21:05;97665.63;;;10.81;77.49
14242;BME280;7205;50.864;12.766;2023-02-22T01:23:34;97672.53;;;10.82;77.52
14242;BME280;7205;50.864;12.766;2023-02-22T01:26:01;97663.16;;;10.80;77.21
14242;BME280;7205;50.864;12.766;2023-02-22T01:28:30;97668.28;;;10.81;77.53
14242;BME280;7205;50.864;12.766;2023-02-22T01:30:57;97655.25;;;10.80;77.52
14242;BME280;7205;50.864;12.766;2023-02-22T01:33:27;97650.13;;;10.78;76.93
14242;BME280;7205;50.864;12.766;2023-02-22T01:35:54;97657.88;;;10.80;77.38
14242;BME280;7205;50.864;12.766;2023-02-22T01:38:21;97656.03;;;10.80;77.24
14242;BME280;7205;50.864;12.766;2023-02-22T01:40:49;97647.66;;;10.77;77.07
14242;BME280;7205;50.864;12.766;2023-02-22T01:43:19;97646.84;;;10.76;77.08
14242;BME280;7205;50.864;12.766;2023-02-22T01:45:56;97644.56;;;10.73;76.76
14242;BME280;7205;50.864;12.766;2023-02-22T01:48:31;97653.28;;;10.74;77.19
14242;BME280;7205;50.864;12.766;2023-02-22T01:51:02;97639.44;;;10.72;77.35
14242;BME280;7205;50.864;12.766;2023-02-22T01:53:38;97634.69;;;10.67;77.59
14242;BME280;7205;50.864;12.766;2023-02-22T01:56:10;97640.78;;;10.68;77.39
14242;BME280;7205;50.864;12.766;2023-02-22T01:58:45;97636.16;;;10.70;77.29
14242;BME280;7205;50.864;12.766;2023-02-22T02:01:15;97631.88;;;10.69;77.77
14242;BME280;7205;50.864;12.766;2023-02-22T02:03:45;97642.59;;;10.67;77.93
14242;BME280;7205;50.864;12.766;2023-02-22T02:06:18;97639.59;;;10.70;77.74
14242;BME280;7205;50.864;12.766;2023-02-22T02:08:53;97628.75;;;10.65;78.10
14242;BME280;7205;50.864;12.766;2023-02-22T02:11:24;97622.00;;;10.63;77.86
14242;BME280;7205;50.864;12.766;2023-02-22T02:13:53;97635.50;;;10.68;78.30
14242;BME280;7205;50.864;12.766;2023-02-22T02:16:22;97624.47;;;10.64;78.19
14242;BME280;7205;50.864;12.766;2023-02-22T02:18:52;97621.00;;;10.64;78.02
14242;BME280;7205;50.864;12.766;2023-02-22T02:21:38;97623.47;;;10.65;78.37
14242;BME280;7205;50.864;12.766;2023-02-22T02:24:32;97632.41;;;10.64;78.18
14242;BME280;7205;50.864;12.766;2023-02-22T02:27:10;97615.25;;;10.60;78.47
14242;BME280;7205;50.864;12.766;2023-02-22T02:32:52;97611.81;;;10.60;78.25
14242;BME280;7205;50.864;12.766;2023-02-22T02:35:27;97614.63;;;10.58;78.00
14242;BME280;7205;50.864;12.766;2023-02-22T02:38:00;97612.00;;;10.58;78.34
14242;BME280;7205;50.864;12.766;2023-02-22T02:40:36;97617.41;;;10.57;78.23
14242;BME280;7205;50.864;12.766;2023-02-22T02:43:10;97621.53;;;10.59;78.46
14242;BME280;7205;50.864;12.766;2023-02-22T02:45:44;97609.84;;;10.54;78.97
14242;BME280;7205;50.864;12.766;2023-02-22T02:48:16;97607.88;;;10.56;78.56
14242;BME280;7205;50.864;12.766;2023-02-22T02:50:47;97610.03;;;10.52;78.71
14242;BME280;7205;50.864;12.766;2023-02-22T02:53:17;97605.75;;;10.51;79.42
14242;BME280;7205;50.864;12.766;2023-02-22T02:55:45;97604.94;;;10.51;78.78
14242;BME280;7205;50.864;12.766;2023-02-22T02:58:17;97609.56;;;10.49;79.50
14242;BME280;7205;50.864;12.766;2023-02-22T03:00:45;97607.75;;;10.49;79.44
14242;BME280;7205;50.864;12.766;2023-02-22T03:03:28;97596.53;;;10.47;79.14
14242;BME280;7205;50.864;12.766;2023-02-22T03:06:11;97596.38;;;10.49;79.49
14242;BME280;7205;50.864;12.766;2023-02-22T03:08:47;97590.78;;;10.44;79.44
14242;BME280;7205;50.864;12.766;2023-02-22T03:11:21;97597.91;;;10.43;79.87
14242;BME280;7205;50.864;12.766;2023-02-22T03:13:56;97601.81;;;10.47;79.70
14242;BME280;7205;50.864;12.766;2023-02-22T03:16:31;97590.78;;;10.44;79.95
14242;BME280;7205;50.864;12.766;2023-02-22T03:19:06;97585.03;;;10.40;79.79
14242;BME280;7205;50.864;12.766;2023-02-22T03:21:40;97587.16;;;10.45;79.77
14242;BME280;7205;50.864;12.766;2023-02-22T03:24:18;97576.81;;;10.35;80.30
14242;BME280;7205;50.864;12.766;2023-02-22T03:26:51;97587.66;;;10.40;80.26
14242;BME280;7205;50.864;12.766;2023-02-22T03:29:21;97581.41;;;10.41;79.87
14242;BME280;7205;50.864;12.766;2023-02-22T03:31:52;97581.88;;;10.45;80.18
14242;BME280;7205;50.864;12.766;2023-02-22T03:34:32;97593.44;;;10.44;80.88
14242;BME280;7205;50.864;12.766;2023-02-22T03:37:04;97586.34;;;10.44;80.04
14242;BME280;7205;50.864;12.766;2023-02-22T03:39:35;97585.50;;;10.44;80.59
14242;BME280;7205;50.864;12.766;2023-02-22T03:42:08;97586.53;;;10.43;80.08
14242;BME280;7205;50.864;12.766;2023-02-22T03:44:40;97587.00;;;10.46;80.49
14242;BME280;7205;50.864;12.766;2023-02-22T03:47:13;97587.78;;;10.47;80.82
14242;BME280;7205;50.864;12.766;2023-02-22T03:49:45;97582.69;;;10.45;80.49
14242;BME280;7205;50.864;12.766;2023-02-22T03:52:15;97578.41;;;10.44;80.73
14242;BME280;7205;50.864;12.766;2023-02-22T03:54:42;97584.34;;;10.46;80.67
14242;BME280;7205;50.864;12.766;2023-02-22T03:57:14;97585.31;;;10.45;80.96
14242;BME280;7205;50.864;12.766;2023-02-22T03:59:44;97587.78;;;10.47;80.43
14242;BME280;7205;50.864;12.766;2023-02-22T04:02:11;97584.06;;;10.41;81.30
14242;BME280;7205;50.864;12.766;2023-02-22T04:04:38;97593.72;;;10.49;81.20
14242;BME280;7205;50.864;12.766;2023-02-22T04:07:08;97589.28;;;10.49;80.69
14242;BME280;7205;50.864;12.766;2023-02-22T04:09:35;97580.41;;;10.42;81.21
14242;BME280;7205;50.864;12.766;2023-02-22T04:12:03;97583.16;;;10.49;80.50
14242;BME280;7205;50.864;12.766;2023-02-22T04:14:37;97592.09;;;10.48;80.63
14242;BME280;7205;50.864;12.766;2023-02-22T04:17:05;97590.72;;;10.52;80.86
14242;BME280;7205;50.864;12.766;2023-02-22T04:19:33;97593.91;;;10.47;80.74
14242;BME280;7205;50.864;12.766;2023-02-22T04:22:00;97586.81;;;10.48;80.66
14242;BME280;7205;50.864;12.766;2023-02-22T04:24:32;97595.56;;;10.48;81.00
14242;BME280;7205;50.864;12.766;2023-02-22T04:26:59;97592.91;;;10.48;80.78
14242;BME280;7205;50.864;12.766;2023-02-22T04:29:27;97593.44;;;10.44;81.17
14242;BME280;7205;50.864;12.766;2023-02-22T04:31:54;97583.16;;;10.49;81.21
14242;BME280;7205;50.864;12.766;2023-02-22T04:34:21;97578.06;;;10.47;80.98
14242;BME280;7205;50.864;12.766;2023-02-22T04:36:52;97576.25;;;10.48;80.75
14242;BME280;7205;50.864;12.766;2023-02-22T04:39:19;97578.00;;;10.55;80.67
14242;BME280;7205;50.864;12.766;2023-02-22T04:41:48;97577.19;;;10.55;80.74
14242;BME280;7205;50.864;12.766;2023-02-22T04:44:15;97581.00;;;10.52;80.47
14242;BME280;7205;50.864;12.766;2023-02-22T04:46:42;97573.91;;;10.53;80.83
14242;BME280;7205;50.864;12.766;2023-02-22T04:49:12;97574.09;;;10.51;81.10
14242;BME280;7205;50.864;12.766;2023-02-22T04:51:41;97574.44;;;10.48;81.07
14242;BME280;7205;50.864;12.766;2023-02-22T04:54:10;97568.34;;;10.48;81.22
14242;BME280;7205;50.864;12.766;2023-02-22T04:56:42;97583.81;;;10.51;81.29
14242;BME280;7205;50.864;12.766;2023-02-22T04:59:10;97564.22;;;10.45;80.96
14242;BME280;7205;50.864;12.766;2023-02-22T05:01:41;97570.44;;;10.52;80.80
14242;BME280;7205;50.864;12.766;2023-02-22T05:04:08;97556.94;;;10.47;80.48
14242;BME280;7205;50.864;12.766;2023-02-22T05:06:35;97560.88;;;10.51;81.21
14242;BME280;7205;50.864;12.766;2023-02-22T05:09:02;97555.97;;;10.48;80.35
14242;BME280;7205;50.864;12.766;2023-02-22T05:11:29;97560.06;;;10.51;80.82
14242;BME280;7205;50.864;12.766;2023-02-22T05:13:56;97555.13;;;10.48;80.62
14242;BME280;7205;50.864;12.766;2023-02-22T05:16:26;97549.84;;;10.48;80.49
14242;BME280;7205;50.864;12.766;2023-02-22T05:18:53;97563.53;;;10.51;80.68
14242;BME280;7205;50.864;12.766;2023-02-22T05:21:20;97551.84;;;10.46;80.69
14242;BME280;7205;50.864;12.766;2023-02-22T05:23:48;97553.47;;;10.47;80.56
14242;BME280;7205;50.864;12.766;2023-02-22T05:26:18;97547.28;;;10.40;80.48
14242;BME280;7205;50.864;12.766;2023-02-22T05:28:45;97554.47;;;10.46;80.38
14242;BME280;7205;50.864;12.766;2023-02-22T05:31:12;97549.03;;;10.47;80.64
14242;BME280;7205;50.864;12.766;2023-02-22T05:33:41;97551.84;;;10.46;80.37
14242;BME280;7205;50.864;12.766;2023-02-22T05:36:08;97550.22;;;10.45;80.78
14242;BME280;7205;50.864;12.766;2023-02-22T05:38:36;97553.47;;;10.47;80.39
14242;BME280;7205;50.864;12.766;2023-02-22T05:41:08;97549.91;;;10.40;80.17
14242;BME280;7205;50.864;12.766;2023-02-22T05:43:35;97542.19;;;10.38;80.22
14242;BME280;7205;50.864;12.766;2023-02-22T05:46:06;97530.31;;;10.34;79.82
14242;BME280;7205;50.864;12.766;2023-02-22T05:48:43;97537.59;;;10.32;80.25
14242;BME280;7205;50.864;12.766;2023-02-22T05:51:17;97541.00;;;10.41;80.28
14242;BME280;7205;50.864;12.766;2023-02-22T05:54:07;97537.94;;;10.29;80.16
14242;BME280;7205;50.864;12.766;2023-02-22T05:56:37;97541.88;;;10.33;80.07
14242;BME280;7205;50.864;12.766;2023-02-22T05:59:04;97532.38;;;10.24;80.27
14242;BME280;7205;50.864;12.766;2023-02-22T06:01:31;97540.59;;;10.29;80.85
14242;BME280;7205;50.864;12.766;2023-02-22T06:03:59;97551.63;;;10.33;80.82
14242;BME280;7205;50.864;12.766;2023-02-22T06:06:26;97550.78;;;10.32;80.58
14242;BME280;7205;50.864;12.766;2023-02-22T06:08:53;97556.19;;;10.39;81.08
14242;BME280;7205;50.864;12.766;2023-02-22T06:11:21;97548.16;;;10.32;81.04
14242;BME280;7205;50.864;12.766;2023-02-22T06:13:49;97557.00;;;10.39;81.14
14242;BME280;7205;50.864;12.766;2023-02-22T06:16:17;97559.66;;;10.39;81.16
14242;BME280;7205;50.864;12.766;2023-02-22T06:18:44;97544.81;;;10.38;81.16
14242;BME280;7205;50.864;12.766;2023-02-22T06:21:12;97549.91;;;10.40;80.96
14242;BME280;7205;50.864;12.766;2023-02-22T06:23:39;97562.59;;;10.44;81.02
14242;BME280;7205;50.864;12.766;2023-02-22T06:26:06;97551.00;;;10.45;81.41
14242;BME280;7205;50.864;12.766;2023-02-22T06:47:52;97576.28;;;10.62;81.74
14242;BME280;7205;50.864;12.766;2023-02-22T06:50:22;97565.56;;;10.64;81.94
14242;BME280;7205;50.864;12.766;2023-02-22T06:52:51;97568.47;;;10.69;81.43
14242;BME280;7205;50.864;12.766;2023-02-22T06:55:27;97562.03;;;10.71;81.01
14242;BME280;7205;50.864;12.766;2023-02-22T06:58:13;97569.88;;;10.79;81.06
14242;BME280;7205;50.864;12.766;2023-02-22T07:00:48;97566.25;;;10.80;81.43
14242;BME280;7205;50.864;12.766;2023-02-22T07:03:15;97567.06;;;10.81;81.14
14242;BME280;7205;50.864;12.766;2023-02-22T07:06:00;97559.16;;;10.81;81.30
14242;BME280;7205;50.864;12.766;2023-02-22T07:08:32;97555.97;;;10.85;80.85
14242;BME280;7205;50.864;12.766;2023-02-22T07:11:02;97570.38;;;10.97;80.67
14242;BME280;7205;50.864;12.766;2023-02-22T07:13:29;97571.88;;;11.00;80.96
14242;BME280;7205;50.864;12.766;2023-02-22T07:15:56;97568.84;;;11.03;80.67
14242;BME280;7205;50.864;12.766;2023-02-22T07:18:24;97573.41;;;11.09;80.22
14242;BME280;7205;50.864;12.766;2023-02-22T07:20:54;97573.41;;;11.09;80.10
14242;BME280;7205;50.864;12.766;2023-02-22T07:23:23;97571.41;;;11.11;79.64
14242;BME280;7205;50.864;12.766;2023-02-22T07:26:09;97564.97;;;11.13;79.78
14242;BME280;7205;50.864;12.766;2023-02-22T07:28:36;97563.13;;;11.14;79.56
14242;BME280;7205;50.864;12.766;2023-02-22T07:31:18;97564.88;;;11.21;79.49
14242;BME280;7205;50.864;12.766;2023-02-22T07:35:27;97567.16;;;11.24;78.81
14242;BME280;7205;50.864;12.766;2023-02-22T08:46:29;97559.94;;;11.91;75.30
14242;BME280;7205;50.864;12.766;2023-02-22T08:48:55;97557.31;;;11.91;75.17
14242;BME280;7205;50.864;12.766;2023-02-22T08:51:22;97562.03;;;11.96;75.42
14242;BME280;7205;50.864;12.766;2023-02-22T08:53:50;97564.31;;;11.99;75.10
14242;BME280;7205;50.864;12.766;2023-02-22T08:56:17;97564.59;;;12.04;75.36
14242;BME280;7205;50.864;12.766;2023-02-22T08:58:45;97569.59;;;12.13;75.29
14242;BME280;7205;50.864;12.766;2023-02-22T09:01:13;97553.31;;;12.16;75.12
14242;BME280;7205;50.864;12.766;2023-02-22T09:03:42;97556.28;;;12.28;75.05
14242;BME280;7205;50.864;12.766;2023-02-22T09:06:09;97565.13;;;12.35;75.33
14242;BME280;7205;50.864;12.766;2023-02-22T09:08:36;97556.22;;;12.42;75.16
14242;BME280;7205;50.864;12.766;2023-02-22T09:11:03;97557.56;;;12.53;75.33
14242;BME280;7205;50.864;12.766;2023-02-22T09:13:30;97559.88;;;12.62;75.32
14242;BME280;7205;50.864;12.766;2023-02-22T09:15:57;97566.50;;;12.73;75.25
14242;BME280;7205;50.864;12.766;2023-02-22T09:18:27;97554.78;;;12.82;75.01
14242;BME280;7205;50.864;12.766;2023-02-22T09:20:56;97552.44;;;12.94;74.74
14242;BME280;7205;50.864;12.766;2023-02-22T09:23:23;97557.78;;;13.00;74.30
14242;BME280;7205;50.864;12.766;2023-02-22T09:25:50;97552.56;;;13.07;73.85
14242;BME280;7205;50.864;12.766;2023-02-22T09:28:17;97553.03;;;13.17;73.53
14242;BME280;7205;50.864;12.766;2023-02-22T09:30:44;97547.97;;;13.22;73.10
14242;BME280;7205;50.864;12.766;2023-02-22T09:33:13;97548.25;;;13.33;73.01
14242;BME280;7205;50.864;12.766;2023-02-22T09:35:42;97537.47;;;13.41;72.49
14242;BME280;7205;50.864;12.766;2023-02-22T09:38:14;97537.16;;;13.51;72.22
14242;BME280;7205;50.864;12.766;2023-02-22T09:40:44;97536.16;;;13.58;71.67
14242;BME280;7205;50.864;12.766;2023-02-22T09:43:29;97536.41;;;13.70;71.09
14242;BME280;7205;50.864;12.766;2023-02-22T09:46:17;97534.41;;;13.78;70.48
14242;BME280;7205;50.864;12.766;2023-02-22T09:48:56;97536.53;;;13.90;70.00
14242;BME280;7205;50.864;12.766;2023-02-22T09:51:26;97531.25;;;13.96;69.82
14242;BME280;7205;50.864;12.766;2023-02-22T09:54:10;97531.06;;;14.04;69.30
14242;BME280;7205;50.864;12.766;2023-02-22T09:56:43;97518.00;;;14.09;68.28
14242;BME280;7205;50.864;12.766;2023-02-22T09:59:14;97525.56;;;14.19;67.64
14242;BME280;7205;50.864;12.766;2023-02-22T10:01:46;97521.31;;;14.24;67.34
14242;BME280;7205;50.864;12.766;2023-02-22T10:04:18;97525.03;;;14.36;67.22
14242;BME280;7205;50.864;12.766;2023-02-22T10:07:04;97523.59;;;14.40;66.65
14242;BME280;7205;50.864;12.766;2023-02-22T10:09:40;97517.72;;;14.51;66.00
14242;BME280;7205;50.864;12.766;2023-02-22T10:12:14;97515.88;;;14.58;65.76
14242;BME280;7205;50.864;12.766;2023-02-22T10:15:07;97513.03;;;14.73;65.83
14242;BME280;7205;50.864;12.766;2023-02-22T10:17:41;97512.41;;;14.84;65.41
14242;BME280;7205;50.864;12.766;2023-02-22T10:20:21;97507.28;;;14.95;64.65
14242;BME280;7205;50.864;12.766;2023-02-22T10:23:10;97504.81;;;15.07;63.99
14242;BME280;7205;50.864;12.766;2023-02-22T10:25:47;97506.44;;;15.15;63.65
14242;BME280;7205;50.864;12.766;2023-02-22T10:28:18;97501.13;;;15.21;63.09
14242;BME280;7205;50.864;12.766;2023-02-22T10:30:49;97503.34;;;15.31;62.62
14242;BME280;7205;50.864;12.766;2023-02-22T10:33:21;97506.63;;;15.39;62.08
14242;BME280;7205;50.864;12.766;2023-02-22T10:35:51;97500.91;;;15.42;61.57
14242;BME280;7205;50.864;12.766;2023-02-22T10:38:21;97504.34;;;15.49;61.16
14242;BME280;7205;50.864;12.766;2023-02-22T10:40:55;97493.13;;;15.47;60.81
14242;BME280;7205;50.864;12.766;2023-02-22T10:43:23;97490.25;;;15.49;60.25
14242;BME280;7205;50.864;12.766;2023-02-22T10:45:53;97487.59;;;15.49;60.01
14242;BME280;7205;50.864;12.766;2023-02-22T10:48:22;97486.75;;;15.48;59.71
14242;BME280;7205;50.864;12.766;2023-02-22T10:50:52;97483.91;;;15.43;59.13
14242;BME280;7205;50.864;12.766;2023-02-22T10:53:20;97491.69;;;15.45;59.16
14242;BME280;7205;50.864;12.766;2023-02-22T10:56:10;97484.94;;;15.42;58.70
14242;BME280;7205;50.864;12.766;2023-02-22T10:58:42;97484.75;;;15.44;58.96
14242;BME280;7205;50.864;12.766;2023-02-22T11:01:18;97482.28;;;15.42;58.30
14242;BME280;7205;50.864;12.766;2023-02-22T11:03:55;97487.59;;;15.49;58.22
14242;BME280;7205;50.864;12.766;2023-02-22T11:06:23;97482.84;;;15.51;58.38
14242;BME280;7205;50.864;12.766;2023-02-22T11:08:50;97475.88;;;15.56;58.18
14242;BME280;7205;50.864;12.766;2023-02-22T11:11:24;97476.72;;;15.57;57.67
14242;BME280;7205;50.864;12.766;2023-02-22T11:13:54;97470.97;;;15.53;57.12
14242;BME280;7205;50.864;12.766;2023-02-22T11:16:26;97468.75;;;15.50;57.26
14242;BME280;7205;50.864;12.766;2023-02-22T11:18:59;97464.66;;;15.48;57.46
14242;BME280;7205;50.864;12.766;2023-02-22T11:21:29;97468.56;;;15.45;57.19
14242;BME280;7205;50.864;12.766;2023-02-22T11:24:01;97460.16;;;15.42;57.47
14242;BME280;7205;50.864;12.766;2023-02-22T11:26:36;97452.19;;;15.35;57.42
14242;BME280;7205;50.864;12.766;2023-02-22T11:29:11;97454.63;;;15.37;57.62
14242;BME280;7205;50.864;12.766;2023-02-22T11:31:44;97450.75;;;15.39;57.68
14242;BME280;7205;50.864;12.766;2023-02-22T11:34:33;97453.81;;;15.43;57.57
14242;BME280;7205;50.864;12.766;2023-02-22T11:37:26;97454.00;;;15.48;57.43
14242;BME280;7205;50.864;12.766;2023-02-22T11:40:09;97451.13;;;15.49;56.99
14242;BME280;7205;50.864;12.766;2023-02-22T11:42:40;97441.34;;;15.43;56.77
14242;BME280;7205;50.864;12.766;2023-02-22T11:45:10;97442.16;;;15.44;56.38
14242;BME280;7205;50.864;12.766;2023-02-22T11:47:47;97439.50;;;15.44;56.38
14242;BME280;7205;50.864;12.766;2023-02-22T11:50:22;97442.34;;;15.49;56.71
14242;BME280;7205;50.864;12.766;2023-02-22T11:52:56;97433.94;;;15.52;56.39
14242;BME280;7205;50.864;12.766;2023-02-22T11:55:30;97426.78;;;15.52;56.34
14242;BME280;7205;50.864;12.766;2023-02-22T11:58:08;97423.91;;;15.54;55.70
14242;BME280;7205;50.864;12.766;2023-02-22T12:00:48;97422.47;;;15.51;55.77
14242;BME280;7205;50.864;12.766;2023-02-22T12:06:20;97407.25;;;15.65;56.88
14242;BME280;7205;50.864;12.766;2023-02-22T12:08:59;97405.16;;;15.73;55.85
14242;BME280;7205;50.864;12.766;2023-02-22T12:11:36;97410.66;;;15.78;55.77
14242;BME280;7205;50.864;12.766;2023-02-22T12:14:16;97410.00;;;15.83;55.61
14242;BME280;7205;50.864;12.766;2023-02-22T12:17:06;97404.06;;;15.87;55.43
14242;BME280;7205;50.864;12.766;2023-02-22T12:19:41;97412.00;;;15.94;54.96
14242;BME280;7205;50.864;12.766;2023-02-22T12:22:12;97403.41;;;15.92;55.03
14242;BME280;7205;50.864;12.766;2023-02-22T12:24:43;97407.03;;;16.04;55.32
14242;BME280;7205;50.864;12.766;2023-02-22T12:27:17;97408.00;;;16.09;55.53
14242;BME280;7205;50.864;12.766;2023-02-22T12:29:49;97402.03;;;16.14;55.48
14242;BME280;7205;50.864;12.766;2023-02-22T12:32:23;97407.09;;;16.22;55.64
14242;BME280;7205;50.864;12.766;2023-02-22T12:34:56;97399.50;;;16.25;55.39
14242;BME280;7205;50.864;12.766;2023-02-22T12:37:27;97404.34;;;16.35;55.37
14242;BME280;7205;50.864;12.766;2023-02-22T12:40:03;97405.09;;;16.42;55.10
14242;BME280;7205;50.864;12.766;2023-02-22T12:42:41;97398.94;;;16.48;55.16
14242;BME280;7205;50.864;12.766;2023-02-22T12:45:27;97397.47;;;16.52;55.05
14242;BME280;7205;50.864;12.766;2023-02-22T12:48:01;97386.59;;;16.54;54.48
14242;BME280;7205;50.864;12.766;2023-02-22T12:50:33;97391.09;;;16.53;54.31
14242;BME280;7205;50.864;12.766;2023-02-22T12:53:07;97396.63;;;16.52;54.31
14242;BME280;7205;50.864;12.766;2023-02-22T12:55:41;97390.50;;;16.45;54.23
14242;BME280;7205;50.864;12.766;2023-02-22T12:58:18;97391.41;;;16.39;54.58
14242;BME280;7205;50.864;12.766;2023-02-22T13:00:57;97377.63;;;16.17;53.72
14242;BME280;7205;50.864;12.766;2023-02-22T13:03:35;97384.94;;;15.97;53.42
14242;BME280;7205;50.864;12.766;2023-02-22T13:06:20;97386.91;;;15.77;53.54
14242;BME280;7205;50.864;12.766;2023-02-22T13:09:00;97382.75;;;15.50;54.00
14242;BME280;7205;50.864;12.766;2023-02-22T13:11:35;97378.69;;;15.34;54.49
14242;BME280;7205;50.864;12.766;2023-02-22T13:14:17;97380.59;;;15.21;54.76
14242;BME280;7205;50.864;12.766;2023-02-22T13:16:57;97385.94;;;15.14;55.12
14242;BME280;7205;50.864;12.766;2023-02-22T13:19:34;97378.00;;;15.01;54.82
14242;BME280;7205;50.864;12.766;2023-02-22T13:22:09;97378.44;;;14.91;55.19
14242;BME280;7205;50.864;12.766;2023-02-22T13:24:48;97382.75;;;14.86;55.31
14242;BME280;7205;50.864;12.766;2023-02-22T13:27:25;97369.06;;;14.76;56.07
14242;BME280;7205;50.864;12.766;2023-02-22T13:29:56;97376.22;;;14.75;56.25
14242;BME280;7205;50.864;12.766;2023-02-22T13:32:35;97369.91;;;14.70;56.48
14242;BME280;7205;50.864;12.766;2023-02-22T13:35:16;97371.34;;;14.66;56.38
14242;BME280;7205;50.864;12.766;2023-02-22T13:38:05;97371.34;;;14.59;56.87
14242;BME280;7205;50.864;12.766;2023-02-22T13:44:19;97366.47;;;14.50;57.09
14242;BME280;7205;50.864;12.766;2023-02-22T15:02:17;97332.34;;;14.14;60.44
14242;BME280;7205;50.864;12.766;2023-02-22T15:09:03;97336.00;;;14.07;60.70
14242;BME280;7205;50.864;12.766;2023-02-22T15:11:36;97322.31;;;13.97;61.10
14242;BME280;7205;50.864;12.766;2023-02-22T15:14:35;97321.31;;;13.91;61.10
14242;BME280;7205;50.864;12.766;2023-02-22T15:31:28;97314.13;;;13.65;62.35
14242;BME280;7205;50.864;12.766;2023-02-22T15:34:18;97320.25;;;13.59;62.30
14242;BME280;7205;50.864;12.766;2023-02-22T15:39:33;97315.13;;;13.51;63.01
14242;BME280;7205;50.864;12.766;2023-02-22T15:42:10;97316.97;;;13.44;62.94
14242;BME280;7205;50.864;12.766;2023-02-22T15:44:44;97305.72;;;13.36;62.90
14242;BME280;7205;50.864;12.766;2023-02-22T15:47:17;97312.63;;;13.30;63.21
14242;BME280;7205;50.864;12.766;2023-02-22T15:49:44;97312.22;;;13.27;63.49
14242;BME280;7205;50.864;12.766;2023-02-22T15:52:17;97319.94;;;13.22;63.52
14242;BME280;7205;50.864;12.766;2023-02-22T15:54:48;97310.13;;;13.09;63.91
14242;BME280;7205;50.864;12.766;2023-02-22T15:57:17;97315.22;;;13.04;64.12
14242;BME280;7205;50.864;12.766;2023-02-22T15:59:48;97314.75;;;13.01;64.26
14242;BME280;7205;50.864;12.766;2023-02-22T16:02:25;97315.53;;;12.95;64.49
14242;BME280;7205;50.864;12.766;2023-02-22T16:04:58;97319.81;;;12.89;64.85
14242;BME280;7205;50.864;12.766;2023-02-22T16:07:25;97317.94;;;12.83;64.90
14242;BME280;7205;50.864;12.766;2023-02-22T16:09:53;97315.44;;;12.75;65.04
14242;BME280;7205;50.864;12.766;2023-02-22T16:12:26;97329.28;;;12.71;65.54
14242;BME280;7205;50.864;12.766;2023-02-22T16:14:59;97317.22;;;12.61;65.81
14242;BME280;7205;50.864;12.766;2023-02-22T16:17:31;97321.44;;;12.56;66.10
14242;BME280;7205;50.864;12.766;2023-02-22T16:22:44;97314.84;;;12.39;66.33
14242;BME280;7205;50.864;12.766;2023-02-22T16:25:24;97323.75;;;12.31;66.84
14242;BME280;7205;50.864;12.766;2023-02-22T16:27:55;97315.97;;;12.23;67.14
14242;BME280;7205;50.864;12.766;2023-02-22T16:30:27;97321.59;;;12.14;67.34
14242;BME280;7205;50.864;12.766;2023-02-22T16:32:56;97320.72;;;12.07;67.65
14242;BME280;7205;50.864;12.766;2023-02-22T16:35:24;97329.06;;;12.04;67.87
14242;BME280;7205;50.864;12.766;2023-02-22T16:37:56;97323.09;;;11.95;68.09
14242;BME280;7205;50.864;12.766;2023-02-22T16:40:27;97315.66;;;11.84;68.13
14242;BME280;7205;50.864;12.766;2023-02-22T16:42:58;97313.16;;;11.76;68.86
14242;BME280;7205;50.864;12.766;2023-02-22T16:45:26;97316.19;;;11.73;69.30